Terminal Aerodrome Forecast
Issued by NWS

Home | Current Version | Previous Version | Text Only | Print | Product List | Glossary On
Versions: 1 2 3 4 5 6 7 8 9 10 11 12 13 14
853
FTUS41 KLWX 171120
TAFMTN
TAF
KMTN 171120Z 1712/1812 00000KT 6SM BR VCSH OVC015
     FM171400 VRB03KT 3SM -SHRA BR OVC015
     FM171800 15006KT 3SM -SHRA BR OVC005
     FM172100 16005KT P6SM OVC005
     FM180000 16005KT 3SM BR OVC005
     FM180900 27005KT P6SM BKN090=

USA.gov is the U.S. government's official web portal to all federal, state and local government web resources and services.